Time;durP1;ratioP1;P1;durP2;ratioP2;P2;SDS_P1;SDS_P2;PMS_P1;PMS_P2;Temp;Humidity;BMP_temperature;BMP_pressure;BME280_temperature;BME280_humidity;BME280_pressure;Samples;Min_cycle;Max_cycle;Signal;HPM_P1;HPM_P2
2024/01/08 00:00:41;;;;;;;1.30;1.30;;;1.50;99.90;;;1.35;66.84;101289.75;4822937;28;24448;-64
2024/01/08 00:03:03;;;;;;;1.40;1.40;;;1.60;99.90;;;1.37;67.13;101277.69;4829432;28;24438;-62
2024/01/08 00:05:25;;;;;;;1.17;1.17;;;1.60;99.90;;;1.34;66.92;101276.03;4800413;28;24476;-64
2024/01/08 00:07:47;;;;;;;1.38;1.30;;;1.60;99.90;;;1.38;67.19;101284.56;4836965;28;24445;-64
2024/01/08 00:10:10;;;;;;;1.02;1.02;;;1.60;99.90;;;1.40;66.00;101277.63;4827643;28;24456;-64
2024/01/08 00:12:32;;;;;;;1.40;1.30;;;1.60;99.90;;;1.39;66.85;101286.22;4826335;28;24511;-66
2024/01/08 00:14:54;;;;;;;1.30;1.30;;;1.60;99.90;;;1.38;67.32;101280.25;4797624;28;24444;-64
2024/01/08 00:17:16;;;;;;;1.30;1.20;;;1.60;99.90;;;1.37;67.20;101288.84;4831754;28;24899;-66
2024/01/08 00:19:38;;;;;;;1.10;1.10;;;1.60;99.90;;;1.41;67.50;101289.59;4822026;28;24525;-64
2024/01/08 00:22:00;;;;;;;1.10;1.10;;;1.60;99.90;;;1.40;66.88;101288.78;4833420;28;25010;-64
2024/01/08 00:24:22;;;;;;;1.17;1.13;;;1.60;99.90;;;1.45;67.42;101289.50;4814733;28;24520;-64
2024/01/08 00:26:44;;;;;;;1.30;1.20;;;1.70;99.90;;;1.41;67.42;101282.75;4836064;28;24520;-64
2024/01/08 00:29:06;;;;;;;1.00;1.00;;;1.60;99.90;;;1.40;67.34;101278.50;4821873;28;24456;-65
2024/01/08 00:31:28;;;;;;;1.20;1.20;;;1.70;99.90;;;1.40;67.60;101288.78;4819306;28;24455;-63
2024/01/08 00:33:50;;;;;;;0.98;0.98;;;1.60;99.90;;;1.43;67.71;101278.41;4814069;28;25058;-62
2024/01/08 00:36:12;;;;;;;1.00;1.00;;;1.60;99.90;;;1.43;66.98;101278.41;4801910;28;24487;-64
2024/01/08 00:38:34;;;;;;;1.15;1.15;;;1.60;99.90;;;1.46;67.18;101282.63;4832345;28;24487;-63
2024/01/08 00:40:56;;;;;;;1.15;1.15;;;1.70;99.90;;;1.43;66.67;101285.25;4830855;28;24433;-65
2024/01/08 00:43:18;;;;;;;0.90;0.90;;;1.70;99.90;;;1.43;67.17;101280.13;4824006;28;24442;-63
2024/01/08 00:45:40;;;;;;;1.20;1.20;;;1.70;99.90;;;1.36;68.25;101282.00;4819308;28;24436;-63
2024/01/08 00:48:02;;;;;;;1.10;1.10;;;1.60;99.90;;;1.45;67.31;101281.78;4796567;28;24607;-64
2024/01/08 00:50:26;;;;;;;1.20;1.20;;;1.60;99.90;;;1.43;66.82;101283.53;4810087;28;24455;-63
2024/01/08 00:52:48;;;;;;;1.17;1.17;;;1.70;99.90;;;1.47;67.04;101274.03;4813162;28;24554;-63
2024/01/08 00:55:11;;;;;;;1.25;1.25;;;1.60;99.90;;;1.51;67.49;101280.81;4819111;28;24522;-64
2024/01/08 00:57:34;;;;;;;1.10;1.10;;;1.70;99.90;;;1.50;67.82;101285.09;4836432;28;24537;-63
2024/01/08 00:59:56;;;;;;;1.20;1.20;;;1.70;99.90;;;1.53;67.92;101279.84;4813291;28;24887;-63
2024/01/08 01:02:18;;;;;;;1.10;1.10;;;1.70;99.90;;;1.51;67.75;101286.75;4824970;28;24819;-64
2024/01/08 01:04:40;;;;;;;1.30;1.20;;;1.70;99.90;;;1.57;67.86;101278.06;4805379;28;24589;-64
2024/01/08 01:07:02;;;;;;;1.08;1.08;;;1.70;99.90;;;1.57;67.23;101288.38;4819095;28;24902;-64
2024/01/08 01:09:24;;;;;;;1.00;1.00;;;1.80;99.90;;;1.58;67.25;101284.06;4815252;28;24519;-64
2024/01/08 01:11:46;;;;;;;1.00;1.00;;;1.80;99.90;;;1.55;67.04;101283.22;4830941;28;24445;-63
2024/01/08 01:14:08;;;;;;;0.90;0.90;;;1.80;99.90;;;1.58;67.55;101286.66;4822115;28;24535;-64
2024/01/08 01:16:30;;;;;;;1.02;1.02;;;1.80;99.90;;;1.51;67.22;101286.75;4835601;28;24508;-65
2024/01/08 01:18:52;;;;;;;1.10;1.10;;;1.70;99.90;;;1.53;67.67;101279.84;4816890;28;24440;-65
2024/01/08 01:21:23;;;;;;;1.10;1.10;;;1.70;99.90;;;1.53;67.67;101285.00;4830056;28;24475;-66
2024/01/08 01:23:44;;;;;;;1.80;1.00;;;1.70;99.90;;;1.49;67.49;101285.13;4808605;28;24520;-65
2024/01/08 01:26:06;;;;;;;1.00;1.00;;;1.70;99.90;;;1.50;67.94;101285.09;4835129;28;24486;-65
2024/01/08 01:28:28;;;;;;;1.00;1.00;;;1.70;99.90;;;1.52;67.76;101293.63;4836051;28;24432;-65
2024/01/08 01:30:50;;;;;;;1.20;1.20;;;1.70;99.90;;;1.52;68.00;101295.34;4799621;28;24564;-65
2024/01/08 01:33:12;;;;;;;1.20;1.20;;;1.70;99.90;;;1.55;68.15;101285.81;4816196;28;24436;-65
2024/01/08 01:35:34;;;;;;;1.10;1.00;;;1.80;99.90;;;1.57;68.19;101301.22;4817085;28;24452;-65
2024/01/08 01:37:58;;;;;;;1.17;1.08;;;1.80;99.90;;;1.48;67.69;101292.00;4817674;28;24556;-65
2024/01/08 01:40:20;;;;;;;0.80;0.80;;;1.70;99.90;;;1.46;67.42;101291.19;4817950;28;24907;-66
2024/01/08 01:42:42;;;;;;;1.20;1.20;;;1.70;99.90;;;1.44;67.95;101295.53;4829728;28;24818;-65
2024/01/08 01:45:05;;;;;;;1.10;1.10;;;1.70;99.90;;;1.46;68.50;101293.78;4801373;28;24528;-62
2024/01/08 01:47:28;;;;;;;1.30;1.20;;;1.70;99.90;;;1.43;68.13;101288.69;4817584;28;24436;-65
2024/01/08 01:49:51;;;;;;;0.90;0.90;;;1.70;99.90;;;1.46;67.62;101291.19;4808032;28;24504;-66
2024/01/08 01:52:13;;;;;;;1.17;1.17;;;1.70;99.90;;;1.48;67.55;101294.56;4813938;28;24465;-65
2024/01/08 01:54:35;;;;;;;1.25;1.25;;;1.70;99.90;;;1.49;67.94;101291.09;4800079;28;25167;-65
2024/01/08 01:57:01;;;;;;;0.98;0.98;;;1.70;99.90;;;1.49;67.78;101293.69;4822577;28;24543;-65
2024/01/08 01:59:24;;;;;;;1.00;1.00;;;1.70;99.90;;;1.45;68.05;101286.91;4810886;28;24469;-65
2024/01/08 02:01:46;;;;;;;1.20;1.20;;;1.70;99.90;;;1.48;67.83;101286.88;4803063;28;24524;-65
2024/01/08 02:04:08;;;;;;;1.00;1.00;;;1.70;99.90;;;1.52;67.51;101292.75;4813030;28;24448;-65
2024/01/08 02:06:31;;;;;;;1.10;1.10;;;1.70;99.90;;;1.51;68.17;101294.47;4826373;28;24988;-65
2024/01/08 02:08:53;;;;;;;1.00;1.00;;;1.70;99.90;;;1.47;68.64;101292.03;4817140;28;24547;-65
2024/01/08 02:11:16;;;;;;;1.10;1.10;;;1.70;99.90;;;1.47;69.07;101285.16;4828240;28;24455;-65
2024/01/08 02:13:38;;;;;;;1.10;1.10;;;1.70;99.90;;;1.48;68.11;101281.72;4781631;28;24439;-65
2024/01/08 02:16:00;;;;;;;1.30;1.20;;;1.70;99.90;;;1.46;67.76;101280.06;4834390;28;24436;-65
2024/01/08 02:18:22;;;;;;;1.10;1.10;;;1.70;99.90;;;1.48;68.05;101281.72;4803842;28;25024;-65
2024/01/08 02:20:44;;;;;;;1.10;1.10;;;1.70;99.90;;;1.53;68.65;101279.03;4819129;28;24536;-66
2024/01/08 02:23:06;;;;;;;0.90;0.90;;;1.70;99.90;;;1.49;67.96;101275.69;4804997;28;24429;-65
2024/01/08 02:25:31;;;;;;;1.10;1.10;;;1.70;99.90;;;1.52;68.41;101277.34;4820442;28;24432;-65
2024/01/08 02:27:52;;;;;;;1.00;1.00;;;1.70;99.90;;;1.54;68.32;101289.28;4821713;28;24495;-66
2024/01/08 02:30:14;;;;;;;1.30;1.30;;;1.70;99.90;;;1.55;67.50;101279.84;4811647;28;25025;-66
2024/01/08 02:32:36;;;;;;;0.90;0.90;;;1.80;99.90;;;1.53;67.87;101279.03;4825406;28;24439;-64
2024/01/08 02:34:59;;;;;;;1.10;1.10;;;1.70;99.90;;;1.51;68.27;101276.47;4831816;28;24896;-65
2024/01/08 02:37:21;;;;;;;1.00;1.00;;;1.70;99.90;;;1.51;67.91;101273.91;4836889;28;24459;-64
2024/01/08 02:39:43;;;;;;;1.00;1.00;;;1.70;99.90;;;1.55;68.11;101277.28;4834129;28;24535;-64
2024/01/08 02:42:05;;;;;;;0.90;0.90;;;1.70;99.90;;;1.52;67.25;101282.47;4836180;28;24524;-64
2024/01/08 02:44:27;;;;;;;0.90;0.90;;;1.70;99.90;;;1.51;67.67;101279.06;4828367;28;24448;-65
2024/01/08 02:46:49;;;;;;;1.10;1.10;;;1.70;99.90;;;1.48;67.78;101276.56;4805165;28;24445;-65
2024/01/08 02:49:11;;;;;;;1.10;1.10;;;1.70;99.90;;;1.48;67.63;101276.56;4834550;28;24470;-65
2024/01/08 02:51:32;;;;;;;0.80;0.80;;;1.70;99.90;;;1.45;66.97;101274.06;4825598;28;24843;-64
2024/01/08 02:53:54;;;;;;;0.90;0.90;;;1.70;99.90;;;1.48;66.97;101280.88;4837656;28;24427;-64
2024/01/08 02:56:21;;;;;;;1.10;1.10;;;1.70;99.90;;;1.50;67.53;101271.38;4815723;28;24532;-64
2024/01/08 02:58:43;;;;;;;1.00;1.00;;;1.70;99.90;;;1.53;67.50;101279.84;4810412;28;24464;-65
2024/01/08 03:01:05;;;;;;;1.10;1.10;;;1.70;99.90;;;1.55;67.39;101266.97;4820643;28;24858;-63
2024/01/08 03:03:27;;;;;;;0.90;0.90;;;1.70;99.90;;;1.55;66.76;101278.09;4822621;28;24444;-65
2024/01/08 03:05:49;;;;;;;0.60;0.60;;;1.80;99.90;;;1.43;67.07;101280.97;4837568;28;25014;-64
2024/01/08 03:08:11;;;;;;;1.30;1.00;;;1.70;99.90;;;1.48;66.75;101286.88;4819172;28;24492;-65
2024/01/08 03:10:33;;;;;;;0.80;0.80;;;1.70;99.90;;;1.49;67.45;101287.72;4814050;28;24919;-65
2024/01/08 03:12:55;;;;;;;0.90;0.90;;;1.70;99.90;;;1.52;67.51;101285.91;4836247;28;25053;-62
2024/01/08 03:15:17;;;;;;;1.20;1.10;;;1.70;99.90;;;1.51;67.49;101297.06;4806108;28;25037;-65
2024/01/08 03:17:39;;;;;;;1.00;1.00;;;1.70;99.90;;;1.46;67.10;101280.91;4797667;28;24456;-65
2024/01/08 03:20:04;;;;;;;0.80;0.80;;;1.70;99.90;;;1.45;66.06;101286.91;4826815;28;24456;-65
2024/01/08 03:22:25;;;;;;;1.00;1.00;;;1.70;99.90;;;1.45;66.86;101284.34;4814438;28;24448;-65
2024/01/08 03:24:48;;;;;;;0.90;0.90;;;1.70;99.90;;;1.50;66.01;101292.81;4837635;28;25041;-65
2024/01/08 03:27:10;;;;;;;1.10;1.10;;;1.70;99.90;;;1.44;66.81;101290.41;4836182;28;25095;-65
2024/01/08 03:29:32;;;;;;;0.90;0.90;;;1.70;99.90;;;1.52;65.82;101283.31;4814646;28;24455;-65
2024/01/08 03:31:54;;;;;;;0.85;0.85;;;1.70;99.90;;;1.53;66.22;101289.31;4832996;28;24468;-65
2024/01/08 03:34:16;;;;;;;0.98;0.98;;;1.70;99.90;;;1.54;65.84;101285.84;4829512;28;24472;-64
2024/01/08 03:36:38;;;;;;;1.00;1.00;;;1.70;99.90;;;1.51;66.51;101286.75;4830053;28;24521;-65
2024/01/08 03:39:00;;;;;;;0.90;0.90;;;1.70;99.90;;;1.58;65.61;101283.16;4809524;28;24465;-65
2024/01/08 03:41:22;;;;;;;0.90;0.90;;;1.80;99.90;;;1.61;64.91;101281.41;4827413;28;24432;-65
2024/01/08 03:43:44;;;;;;;0.95;0.95;;;1.80;99.90;;;1.59;64.62;101289.16;4836841;28;24989;-64
2024/01/08 03:46:07;;;;;;;0.90;0.90;;;1.80;99.90;;;1.62;64.86;101289.06;4820264;28;24555;-65
2024/01/08 03:48:29;;;;;;;1.20;1.00;;;1.80;99.90;;;1.64;65.05;101296.78;4835292;28;24524;-64
2024/01/08 03:50:52;;;;;;;1.00;1.00;;;1.80;99.90;;;1.64;66.28;101292.44;4815921;28;24503;-65
2024/01/08 03:53:14;;;;;;;0.90;0.90;;;1.80;99.90;;;1.66;65.95;101295.00;4836406;28;24483;-65
2024/01/08 03:55:37;;;;;;;2.10;1.10;;;1.80;99.90;;;1.68;65.67;101295.81;4834448;28;24459;-65
2024/01/08 03:58:00;;;;;;;0.90;0.90;;;1.80;99.90;;;1.67;65.87;101294.97;4830161;28;24488;-66
2024/01/08 04:00:21;;;;;;;1.40;1.00;;;1.80;99.90;;;1.64;66.20;101294.19;4812656;28;24528;-65
2024/01/08 04:02:43;;;;;;;0.90;0.90;;;1.90;99.90;;;1.63;65.83;101293.34;4810838;28;24519;-65
2024/01/08 04:05:11;;;;;;;1.10;1.00;;;1.80;99.90;;;1.61;66.05;101296.84;4826351;28;24942;-64
2024/01/08 04:07:33;;;;;;;1.20;1.20;;;1.80;99.90;;;1.60;66.23;101290.03;4832911;28;24494;-63
2024/01/08 04:09:55;;;;;;;1.45;1.10;;;1.80;99.90;;;1.61;66.68;101289.97;4816205;28;24509;-65
2024/01/08 04:12:17;;;;;;;2.03;1.20;;;1.80;99.90;;;1.65;66.51;101288.16;4829282;28;24539;-65
2024/01/08 04:14:39;;;;;;;2.10;1.10;;;1.80;99.90;;;1.67;66.72;101291.53;4835621;28;24802;-65
2024/01/08 04:17:01;;;;;;;1.10;1.10;;;1.80;99.90;;;1.67;66.42;101294.09;4811831;28;24527;-65
2024/01/08 04:19:24;;;;;;;1.40;1.10;;;1.90;99.90;;;1.61;66.60;101294.25;4826034;28;24507;-65
2024/01/08 04:21:45;;;;;;;1.00;1.00;;;1.80;99.90;;;1.63;66.67;101297.63;4837725;28;24435;-65
2024/01/08 04:24:08;;;;;;;0.90;0.90;;;1.80;99.90;;;1.58;66.43;101298.59;4827302;28;24448;-64
2024/01/08 04:26:30;;;;;;;1.10;1.10;;;1.80;99.90;;;1.60;66.80;101305.44;4826293;28;24891;-66
2024/01/08 04:28:52;;;;;;;1.00;1.00;;;1.80;99.90;;;1.53;67.28;101304.75;4814013;28;24547;-65
2024/01/08 04:31:19;;;;;;;0.88;0.88;;;1.80;99.90;;;1.55;66.59;101314.09;4831034;28;24472;-66
2024/01/08 04:33:41;;;;;;;1.00;1.00;;;1.80;99.90;;;1.54;66.93;101309.00;4837519;28;24433;-66
2024/01/08 04:36:04;;;;;;;1.07;1.07;;;1.80;99.90;;;1.57;66.88;101314.09;4817743;28;25019;-63
2024/01/08 04:38:25;;;;;;;1.05;1.00;;;1.70;99.90;;;1.51;66.83;101306.53;4825828;28;25009;-65
2024/01/08 04:40:47;;;;;;;1.30;1.30;;;1.70;99.90;;;1.51;66.92;101306.53;4831206;28;24449;-64
2024/01/08 04:43:09;;;;;;;1.20;1.20;;;1.70;99.90;;;1.44;67.35;101313.53;4836714;28;25133;-65
2024/01/08 04:45:31;;;;;;;1.10;1.10;;;1.70;99.90;;;1.37;67.84;101309.41;4788411;28;24539;-65
2024/01/08 04:47:53;;;;;;;1.20;1.20;;;1.60;99.90;;;1.40;67.44;101304.22;4836353;28;24435;-64
2024/01/08 04:50:15;;;;;;;1.20;1.20;;;1.60;99.90;;;1.38;67.40;101305.13;4832403;28;24452;-65
2024/01/08 04:52:37;;;;;;;1.00;1.00;;;1.60;99.90;;;1.39;67.41;101302.50;4835056;28;24467;-66
2024/01/08 04:54:59;;;;;;;1.02;1.02;;;1.60;99.90;;;1.40;67.81;101313.63;4793496;28;24533;-65
2024/01/08 04:57:21;;;;;;;1.10;1.10;;;1.60;99.90;;;1.43;66.90;101318.69;4798597;28;24853;-65
2024/01/08 04:59:43;;;;;;;1.10;1.10;;;1.70;99.90;;;1.39;67.66;101302.50;4793109;28;24815;-65
2024/01/08 05:02:05;;;;;;;1.15;1.15;;;1.60;99.90;;;1.38;67.73;101311.13;4812831;28;24571;-66
2024/01/08 05:04:27;;;;;;;1.00;1.00;;;1.60;99.90;;;1.46;67.54;101318.63;4813875;28;24515;-65
2024/01/08 05:06:50;;;;;;;1.05;1.05;;;1.70;99.90;;;1.46;67.69;101324.63;4834034;28;24431;-65
2024/01/08 05:09:13;;;;;;;1.77;1.30;;;1.70;99.90;;;1.43;67.87;101318.69;4814374;28;24516;-65
2024/01/08 05:11:35;;;;;;;1.60;1.20;;;1.70;99.90;;;1.39;67.56;101317.94;4819064;28;24788;-65
2024/01/08 05:13:57;;;;;;;1.17;1.17;;;1.70;99.90;;;1.39;68.31;101311.94;4809958;28;24529;-65
2024/01/08 05:16:20;;;;;;;1.10;1.10;;;1.60;99.90;;;1.43;67.69;101318.69;4827269;28;24974;-65
2024/01/08 05:18:42;;;;;;;1.00;1.00;;;1.60;99.90;;;1.45;68.02;101315.22;4817322;28;24530;-65
2024/01/08 05:21:05;;;;;;;1.20;1.20;;;1.70;99.90;;;1.36;67.95;101315.41;4833674;28;25013;-65
2024/01/08 05:23:27;;;;;;;1.10;1.10;;;1.60;99.90;;;1.36;67.94;101318.00;4817683;28;24425;-65
2024/01/08 05:25:49;;;;;;;1.10;1.10;;;1.60;99.90;;;1.35;68.21;101321.47;4797559;28;24578;-65
2024/01/08 05:28:11;;;;;;;1.35;1.25;;;1.50;99.90;;;1.36;68.39;101318.00;4821898;28;24814;-65
2024/01/08 05:30:33;;;;;;;1.10;1.10;;;1.60;99.90;;;1.38;67.79;101320.53;4818475;28;25053;-65
2024/01/08 05:32:56;;;;;;;1.20;1.20;;;1.60;99.90;;;1.28;68.40;101325.03;4811983;28;25060;-65
2024/01/08 05:35:18;;;;;;;1.20;1.20;;;1.60;99.90;;;1.26;67.47;101321.66;4810312;28;24439;-64
2024/01/08 05:37:40;;;;;;;1.38;1.30;;;1.50;99.90;;;1.29;67.54;101331.88;4809423;28;24826;-65
2024/01/08 05:40:03;;;;;;;1.20;1.20;;;1.50;99.90;;;1.31;67.77;101339.56;4828316;28;24511;-65
2024/01/08 05:42:25;;;;;;;1.20;1.20;;;1.50;99.90;;;1.33;67.24;101333.50;4817571;28;24424;-64
2024/01/08 05:44:47;;;;;;;1.20;1.20;;;1.50;99.90;;;1.32;66.88;101329.22;4823209;28;24515;-65
2024/01/08 05:47:09;;;;;;;1.10;1.10;;;1.50;99.90;;;1.27;67.08;101328.50;4812744;28;24519;-63
2024/01/08 05:49:31;;;;;;;1.30;1.30;;;1.60;99.90;;;1.33;66.81;101322.38;4833483;28;24441;-64
2024/01/08 05:51:53;;;;;;;1.27;1.27;;;1.60;99.90;;;1.22;66.43;101339.75;4816070;28;24435;-64
2024/01/08 05:54:15;;;;;;;1.20;1.20;;;1.50;99.90;;;1.22;66.50;101332.03;4828537;28;24518;-66
2024/01/08 05:56:37;;;;;;;1.30;1.30;;;1.50;99.90;;;1.19;67.07;101332.94;4807131;28;24518;-64
2024/01/08 05:58:59;;;;;;;1.30;1.30;;;1.50;99.90;;;1.25;66.28;101340.56;4825177;28;24523;-65
2024/01/08 06:01:21;;;;;;;1.20;1.20;;;1.50;99.90;;;1.21;66.77;101338.94;4829441;28;24441;-65
2024/01/08 06:03:46;;;;;;;1.30;1.30;;;1.50;99.90;;;1.24;66.29;101333.72;4833704;28;24503;-65
2024/01/08 06:06:14;;;;;;;1.30;1.30;;;1.50;99.90;;;1.28;65.95;101343.03;4820402;28;24447;-65
2024/01/08 06:08:38;;;;;;;1.45;1.45;;;1.50;99.90;;;1.27;66.09;101345.66;4806107;28;24857;-65
2024/01/08 06:11:00;;;;;;;1.70;1.60;;;1.50;99.90;;;1.31;66.17;101347.28;4838694;28;24479;-66
2024/01/08 06:13:25;;;;;;;1.40;1.30;;;1.50;99.90;;;1.33;66.13;101343.78;4799163;28;24504;-63
2024/01/08 06:15:47;;;;;;;1.30;1.30;;;1.50;99.90;;;1.32;65.65;101336.94;4812182;28;24535;-65
2024/01/08 06:18:13;;;;;;;1.60;1.50;;;1.50;99.90;;;1.29;66.30;101349.03;4837547;28;24467;-67
2024/01/08 06:20:36;;;;;;;1.58;1.48;;;1.50;99.90;;;1.29;66.13;101344.75;4814569;28;24451;-65
2024/01/08 06:22:58;;;;;;;1.20;1.20;;;1.50;99.90;;;1.28;65.95;101340.47;4838076;28;24431;-66
2024/01/08 06:25:20;;;;;;;1.48;1.48;;;1.50;99.90;;;1.22;65.83;101343.19;4837587;28;24439;-65
2024/01/08 06:27:42;;;;;;;1.30;1.30;;;1.50;99.90;;;1.27;66.45;101341.38;4829140;28;25072;-65
2024/01/08 06:30:05;;;;;;;1.42;1.33;;;1.50;99.90;;;1.26;66.11;101337.09;4816023;28;24472;-65
2024/01/08 06:32:27;;;;;;;2.10;2.00;;;1.50;99.90;;;1.24;66.04;101338.00;4829979;28;24494;-64
2024/01/08 06:34:49;;;;;;;1.70;1.60;;;1.50;99.90;;;1.32;66.23;101339.50;4829695;28;24457;-65
2024/01/08 06:37:11;;;;;;;1.30;1.30;;;1.50;99.90;;;1.31;66.27;101335.25;4825499;28;24435;-62
2024/01/08 06:39:33;;;;;;;1.67;1.58;;;1.50;99.90;;;1.19;65.83;101345.81;4836853;28;24558;-63
2024/01/08 06:41:55;;;;;;;1.10;0.80;;;1.40;99.90;;;1.24;65.86;101341.41;4812932;28;20832;-63
2024/01/08 06:44:17;;;;;;;1.40;1.40;;;1.40;99.90;;;1.25;66.31;101339.69;4807871;28;25059;-65
2024/01/08 06:46:39;;;;;;;1.30;0.93;;;1.50;99.90;;;1.28;66.42;101344.75;4816505;28;24479;-63
2024/01/08 06:49:00;;;;;;;1.60;1.50;;;1.50;99.90;;;1.21;66.45;101328.66;4803805;28;24436;-63
2024/01/08 06:51:22;;;;;;;2.23;1.30;;;1.50;99.90;;;1.21;66.04;101341.50;4826595;28;25135;-63
2024/01/08 06:53:45;;;;;;;1.70;1.60;;;1.40;99.90;;;1.25;66.18;101340.56;4805498;28;24445;-63
2024/01/08 06:56:07;;;;;;;1.60;1.50;;;1.40;99.90;;;1.30;66.15;101350.75;4803561;28;24440;-65
2024/01/08 06:58:29;;;;;;;1.90;1.50;;;1.50;99.90;;;1.26;65.97;101344.78;4795807;28;24555;-65
2024/01/08 07:00:51;;;;;;;1.52;1.40;;;1.50;99.90;;;1.35;65.19;101347.16;4824732;28;24441;-64
2024/01/08 07:03:14;;;;;;;1.40;1.40;;;1.50;99.90;;;1.38;65.85;101349.69;4803795;28;24447;-66
2024/01/08 07:05:36;;;;;;;1.30;1.30;;;1.60;99.90;;;1.39;65.67;101361.66;4826163;28;24487;-63
2024/01/08 07:07:59;;;;;;;1.45;1.40;;;1.60;99.90;;;1.33;65.40;101361.78;4837205;28;24434;-63
2024/01/08 07:10:22;;;;;;;1.13;1.13;;;1.60;99.90;;;1.30;66.38;101351.56;4819728;28;24440;-62
2024/01/08 07:12:45;;;;;;;1.40;1.40;;;1.50;99.90;;;1.32;66.04;101367.78;4819373;28;25028;-64
2024/01/08 07:15:07;;;;;;;1.58;1.48;;;1.50;99.90;;;1.31;66.19;101353.25;4822418;28;24449;-64
2024/01/08 07:17:29;;;;;;;1.50;1.40;;;1.50;99.90;;;1.31;65.49;101363.53;4817206;28;24524;-64
2024/01/08 07:19:52;;;;;;;1.70;1.55;;;1.50;99.90;;;1.30;65.13;101353.31;4816852;28;25230;-64
2024/01/08 07:22:14;;;;;;;1.30;1.30;;;1.50;99.90;;;1.36;64.76;101369.41;4835546;28;24468;-62
2024/01/08 07:24:35;;;;;;;1.10;1.10;;;1.50;99.90;;;1.38;63.53;101370.25;4821464;28;24432;-64
2024/01/08 07:26:57;;;;;;;1.20;1.20;;;1.60;99.90;;;1.36;63.86;101371.16;4820660;28;24547;-64
2024/01/08 07:29:19;;;;;;;1.40;1.30;;;1.60;99.90;;;1.33;62.04;101374.63;4816031;28;24448;-64
2024/01/08 07:31:41;;;;;;;1.20;1.20;;;1.60;99.90;;;1.30;61.32;101373.88;4800752;28;24456;-63
2024/01/08 07:34:03;;;;;;;1.30;1.30;;;1.50;99.90;;;1.24;61.34;101374.84;4829463;28;24440;-64
2024/01/08 07:36:25;;;;;;;1.20;1.20;;;1.50;99.90;;;1.28;60.76;101370.47;4832926;28;24499;-64
2024/01/08 07:38:47;;;;;;;1.30;1.30;;;1.50;99.90;;;1.21;60.87;101377.50;4818693;28;24478;-64
2024/01/08 07:41:12;;;;;;;1.10;1.10;;;1.40;99.90;;;1.17;60.75;101372.44;4813770;28;24445;-65
2024/01/08 07:43:37;;;;;;;1.45;1.35;;;1.40;99.90;;;1.16;61.13;101371.59;4817589;28;24498;-64
2024/01/08 07:45:59;;;;;;;1.05;1.05;;;1.40;99.90;;;1.19;61.05;101381.78;4816776;28;24451;-64
2024/01/08 07:48:20;;;;;;;1.45;1.35;;;1.40;99.90;;;1.19;61.67;101374.09;4803175;28;24464;-64
2024/01/08 07:50:42;;;;;;;0.88;0.88;;;1.40;99.90;;;1.16;61.50;101384.44;4812717;28;25038;-64
2024/01/08 07:53:05;;;;;;;1.10;1.10;;;1.40;99.90;;;1.25;61.20;101391.97;4810985;28;24443;-64
2024/01/08 07:55:27;;;;;;;1.25;1.20;;;1.50;99.90;;;1.26;61.78;101392.78;4818935;28;24432;-63
2024/01/08 07:57:48;;;;;;;1.50;1.40;;;1.50;99.90;;;1.19;61.46;101394.66;4836699;28;24460;-64
2024/01/08 08:00:11;;;;;;;1.50;1.40;;;1.40;99.90;;;1.16;62.05;101396.44;4821188;28;24467;-64
2024/01/08 08:02:34;;;;;;;1.40;1.30;;;1.40;99.90;;;1.19;62.23;101392.06;4810249;28;24424;-65
2024/01/08 08:04:56;;;;;;;1.15;1.15;;;1.40;99.90;;;1.24;62.93;101395.41;4830885;28;24429;-64
2024/01/08 08:07:19;;;;;;;1.45;1.35;;;1.40;99.90;;;1.33;62.86;101404.66;4836300;28;24873;-64
2024/01/08 08:09:41;;;;;;;1.00;1.00;;;1.50;99.90;;;1.24;61.92;101413.41;4812966;28;24452;-64
2024/01/08 08:12:03;;;;;;;1.27;1.20;;;1.50;99.90;;;1.23;62.76;101409.16;4829229;28;24453;-63
2024/01/08 08:14:26;;;;;;;1.30;1.30;;;1.50;99.90;;;1.09;63.41;101411.16;4808900;28;24520;-63
2024/01/08 08:16:48;;;;;;;1.30;1.20;;;1.40;99.90;;;1.07;63.45;101410.34;4827028;28;24483;-64
2024/01/08 08:19:10;;;;;;;1.60;1.50;;;1.30;99.90;;;1.14;63.71;101409.34;4833044;28;24511;-63
2024/01/08 08:21:32;;;;;;;1.60;1.60;;;1.30;99.90;;;1.17;64.14;101404.13;4819890;28;24452;-64
2024/01/08 08:23:57;;;;;;;2.05;1.98;;;1.40;99.90;;;1.24;64.27;101400.53;4836547;28;24467;-64
2024/01/08 08:26:19;;;;;;;1.60;1.60;;;1.40;99.90;;;1.27;63.34;101400.50;4815932;28;24441;-63
2024/01/08 08:28:41;;;;;;;2.20;2.10;;;1.50;99.90;;;1.31;63.60;101404.69;4800478;28;24588;-64
2024/01/08 08:31:03;;;;;;;1.90;1.80;;;1.50;99.90;;;1.33;63.98;101413.22;4803435;28;24564;-65
2024/01/08 08:33:25;;;;;;;2.10;2.00;;;1.50;99.90;;;1.34;64.23;101402.03;4811777;28;24459;-64
2024/01/08 08:35:48;;;;;;;1.88;1.77;;;1.50;99.90;;;1.32;63.52;101414.06;4817919;28;24486;-64
2024/01/08 08:38:10;;;;;;;1.75;1.65;;;1.50;99.90;;;1.34;63.29;101416.63;4783859;28;24988;-63
2024/01/08 08:40:31;;;;;;;1.10;1.10;;;1.50;99.90;;;1.26;63.77;101421.91;4829145;28;24511;-64
2024/01/08 08:42:54;;;;;;;1.60;1.60;;;1.50;99.90;;;1.16;63.81;101420.44;4819244;28;24535;-64
2024/01/08 08:45:17;;;;;;;1.85;1.80;;;1.40;99.90;;;1.14;64.24;101424.75;4822591;28;24473;-64
2024/01/08 08:47:40;;;;;;;2.03;2.00;;;1.40;99.90;;;1.21;64.05;101434.03;4816586;28;24470;-64
2024/01/08 08:50:03;;;;;;;1.50;1.40;;;1.40;99.90;;;1.21;64.24;101433.19;4808785;28;24433;-64
2024/01/08 08:52:25;;;;;;;2.37;2.27;;;1.40;99.90;;;1.24;64.41;101427.97;4836262;28;24527;-64
2024/01/08 08:54:47;;;;;;;1.92;1.83;;;1.40;99.90;;;1.21;65.25;101425.47;4835171;28;24444;-64
2024/01/08 08:57:10;;;;;;;2.05;1.95;;;1.50;99.90;;;1.18;65.50;101430.69;4817242;28;24472;-62
2024/01/08 08:59:33;;;;;;;2.10;2.00;;;1.40;99.90;;;1.20;64.77;101431.50;4817857;28;24541;-63
2024/01/08 09:01:55;;;;;;;1.90;1.80;;;1.40;99.90;;;1.15;64.34;101441.03;4814958;28;24463;-64
2024/01/08 09:04:17;;;;;;;2.10;2.00;;;1.40;99.90;;;0.97;64.93;101446.53;4830380;28;24429;-64
2024/01/08 09:06:40;;;;;;;2.30;2.20;;;1.30;99.90;;;1.05;65.31;101445.50;4820187;28;24864;-63
2024/01/08 09:09:02;;;;;;;1.60;1.50;;;1.30;99.90;;;1.05;65.07;101437.78;4795790;28;25067;-66
2024/01/08 09:11:24;;;;;;;1.98;1.88;;;1.30;99.90;;;1.08;64.65;101440.31;4809822;28;24440;-65
2024/01/08 09:13:47;;;;;;;2.30;2.20;;;1.30;99.90;;;1.16;64.63;101433.28;4798720;28;24480;-64
2024/01/08 09:16:14;;;;;;;2.10;2.00;;;1.30;99.90;;;1.15;64.03;101441.84;4815970;28;24449;-64
2024/01/08 09:18:36;;;;;;;2.30;2.20;;;1.40;99.90;;;1.16;63.95;101443.56;4817613;28;24500;-65
2024/01/08 09:20:57;;;;;;;1.80;1.80;;;1.40;99.90;;;1.10;63.13;101448.84;4816304;28;20799;-64
2024/01/08 09:23:20;;;;;;;1.60;1.50;;;1.40;99.90;;;1.03;63.13;101454.97;4817539;28;24912;-64
2024/01/08 09:25:42;;;;;;;2.20;2.10;;;1.30;99.90;;;1.01;63.63;101451.59;4830478;28;25031;-64
2024/01/08 09:28:04;;;;;;;2.30;2.10;;;1.30;99.90;;;1.11;62.57;101457.41;4801755;28;24585;-65
2024/01/08 09:30:26;;;;;;;2.15;2.15;;;1.30;99.90;;;1.09;61.57;101454.84;4802396;28;24541;-64
2024/01/08 09:32:48;;;;;;;2.40;2.30;;;1.30;99.90;;;1.05;61.33;101465.22;4833463;28;25013;-64
2024/01/08 09:35:10;;;;;;;2.10;2.00;;;1.30;99.90;;;0.95;60.85;101463.69;4833611;28;24547;-65
2024/01/08 09:37:32;;;;;;;2.20;2.10;;;1.20;99.90;;;0.85;60.71;101473.31;4827446;28;24866;-65
2024/01/08 09:39:54;;;;;;;1.80;1.70;;;1.20;99.90;;;0.78;59.96;101480.31;4825865;28;24464;-65
2024/01/08 09:42:20;;;;;;;2.20;2.00;;;1.10;99.90;;;0.82;60.49;101483.66;4832966;28;24479;-64
2024/01/08 09:44:47;;;;;;;2.33;2.22;;;1.10;99.90;;;0.81;60.60;101469.09;4814106;28;24892;-64
2024/01/08 09:47:09;;;;;;;2.53;2.42;;;1.10;99.90;;;0.79;60.32;101478.56;4805354;28;24451;-64
2024/01/08 09:49:33;;;;;;;2.60;2.40;;;1.10;99.90;;;0.88;60.81;101478.38;4794170;28;24435;-65
2024/01/08 09:51:55;;;;;;;2.60;2.50;;;1.10;99.90;;;0.84;60.16;101483.59;4822214;28;24532;-64
2024/01/08 09:54:20;;;;;;;2.60;2.50;;;1.10;99.90;;;0.86;60.81;101480.16;4824505;28;24459;-66
2024/01/08 09:56:50;;;;;;;2.70;2.50;;;1.10;99.90;;;0.97;60.39;101483.34;4790282;28;24540;-64
2024/01/08 09:59:12;;;;;;;2.40;2.30;;;1.10;99.90;;;1.01;59.71;101497.84;4789459;28;24631;-64
2024/01/08 10:01:34;;;;;;;2.30;2.20;;;1.20;99.90;;;0.96;58.81;101478.25;4798650;28;24452;-65
2024/01/08 10:03:56;;;;;;;2.67;2.45;;;1.20;99.90;;;0.90;59.23;101484.34;4828060;28;24540;-65